sensor_id;sensor_type;location;lat;lon;timestamp;pressure;altitude;pressure_sealevel;temperature;humidity
10014;BME280;45684;48.358;10.746;2023-03-29T00:00:19;96716.88;;;4.61;100.00
10014;BME280;45684;48.358;10.746;2023-03-29T00:02:47;96722.78;;;4.64;100.00
10014;BME280;45684;48.358;10.746;2023-03-29T00:05:16;96729.47;;;4.66;100.00
10014;BME280;45684;48.358;10.746;2023-03-29T00:07:46;96728.16;;;4.79;100.00
10014;BME280;45684;48.358;10.746;2023-03-29T00:10:20;96733.31;;;4.91;100.00
10014;BME280;45684;48.358;10.746;2023-03-29T00:12:50;96726.59;;;4.98;100.00
10014;BME280;45684;48.358;10.746;2023-03-29T00:15:18;96727.94;;;5.06;100.00
10014;BME280;45684;48.358;10.746;2023-03-29T00:17:48;96729.31;;;5.08;100.00
10014;BME280;45684;48.358;10.746;2023-03-29T00:20:16;96723.09;;;5.08;100.00
10014;BME280;45684;48.358;10.746;2023-03-29T00:22:46;96719.63;;;5.12;100.00
10014;BME280;45684;48.358;10.746;2023-03-29T00:25:13;96722.88;;;5.15;100.00
10014;BME280;45684;48.358;10.746;2023-03-29T00:27:42;96715.91;;;5.14;100.00
10014;BME280;45684;48.358;10.746;2023-03-29T00:30:11;96707.59;;;5.10;100.00
10014;BME280;45684;48.358;10.746;2023-03-29T00:32:40;96707.84;;;5.03;100.00
10014;BME280;45684;48.358;10.746;2023-03-29T00:35:09;96705.69;;;4.95;100.00
10014;BME280;45684;48.358;10.746;2023-03-29T00:37:37;96706.22;;;4.87;100.00
10014;BME280;45684;48.358;10.746;2023-03-29T00:40:09;96695.50;;;4.82;100.00
10014;BME280;45684;48.358;10.746;2023-03-29T00:42:38;96698.97;;;4.82;100.00
10014;BME280;45684;48.358;10.746;2023-03-29T00:45:16;96692.53;;;4.78;100.00
10014;BME280;45684;48.358;10.746;2023-03-29T00:47:47;96680.50;;;4.81;100.00
10014;BME280;45684;48.358;10.746;2023-03-29T00:50:19;96680.22;;;4.72;100.00
10014;BME280;45684;48.358;10.746;2023-03-29T00:52:55;96668.16;;;4.75;100.00
10014;BME280;45684;48.358;10.746;2023-03-29T00:55:30;96666.03;;;4.67;100.00
10014;BME280;45684;48.358;10.746;2023-03-29T00:57:59;96652.34;;;4.63;100.00
10014;BME280;45684;48.358;10.746;2023-03-29T01:00:32;96641.63;;;4.58;100.00
10014;BME280;45684;48.358;10.746;2023-03-29T01:03:06;96638.69;;;4.59;100.00
10014;BME280;45684;48.358;10.746;2023-03-29T01:05:42;96638.66;;;4.54;100.00
10014;BME280;45684;48.358;10.746;2023-03-29T01:08:15;96649.38;;;4.54;100.00
10014;BME280;45684;48.358;10.746;2023-03-29T01:10:48;96640.00;;;4.52;100.00
10014;BME280;45684;48.358;10.746;2023-03-29T01:13:22;96630.63;;;4.49;100.00
10014;BME280;45684;48.358;10.746;2023-03-29T01:15:53;96616.16;;;4.50;100.00
10014;BME280;45684;48.358;10.746;2023-03-29T01:18:24;96620.44;;;4.51;100.00
10014;BME280;45684;48.358;10.746;2023-03-29T01:21:13;96621.53;;;4.50;100.00
10014;BME280;45684;48.358;10.746;2023-03-29T01:23:57;96615.63;;;4.43;100.00
10014;BME280;45684;48.358;10.746;2023-03-29T01:26:42;96607.84;;;4.37;100.00
10014;BME280;45684;48.358;10.746;2023-03-29T01:29:15;96598.50;;;4.34;100.00
10014;BME280;45684;48.358;10.746;2023-03-29T01:31:49;96601.16;;;4.39;100.00
10014;BME280;45684;48.358;10.746;2023-03-29T01:34:22;96595.25;;;4.37;100.00
10014;BME280;45684;48.358;10.746;2023-03-29T01:36:56;96606.25;;;4.35;100.00
10014;BME280;45684;48.358;10.746;2023-03-29T01:39:26;96599.03;;;4.46;100.00
10014;BME280;45684;48.358;10.746;2023-03-29T01:42:03;96601.69;;;4.36;100.00
10014;BME280;45684;48.358;10.746;2023-03-29T01:44:42;96596.91;;;4.48;100.00
10014;BME280;45684;48.358;10.746;2023-03-29T01:47:18;96590.47;;;4.44;100.00
10014;BME280;45684;48.358;10.746;2023-03-29T01:49:53;96586.72;;;4.45;100.00
10014;BME280;45684;48.358;10.746;2023-03-29T01:52:26;96573.31;;;4.40;100.00
10014;BME280;45684;48.358;10.746;2023-03-29T01:55:00;96574.41;;;4.34;100.00
10014;BME280;45684;48.358;10.746;2023-03-29T01:57:31;96580.28;;;4.31;100.00
10014;BME280;45684;48.358;10.746;2023-03-29T02:00:02;96562.59;;;4.30;100.00
10014;BME280;45684;48.358;10.746;2023-03-29T02:02:38;96560.47;;;4.32;100.00
10014;BME280;45684;48.358;10.746;2023-03-29T02:05:10;96558.31;;;4.29;100.00
10014;BME280;45684;48.358;10.746;2023-03-29T02:07:42;96549.75;;;4.27;100.00
10014;BME280;45684;48.358;10.746;2023-03-29T02:10:11;96551.91;;;4.30;100.00
10014;BME280;45684;48.358;10.746;2023-03-29T02:12:41;96555.38;;;4.35;100.00
10014;BME280;45684;48.358;10.746;2023-03-29T02:15:12;96548.94;;;4.37;100.00
10014;BME280;45684;48.358;10.746;2023-03-29T02:17:40;96546.53;;;4.35;100.00
10014;BME280;45684;48.358;10.746;2023-03-29T02:20:13;96547.06;;;4.37;100.00
10014;BME280;45684;48.358;10.746;2023-03-29T02:22:49;96545.19;;;4.32;100.00
10014;BME280;45684;48.358;10.746;2023-03-29T02:25:18;96537.97;;;4.28;100.00
10014;BME280;45684;48.358;10.746;2023-03-29T02:27:48;96534.47;;;4.27;100.00
10014;BME280;45684;48.358;10.746;2023-03-29T02:30:18;96535.56;;;4.26;100.00
10014;BME280;45684;48.358;10.746;2023-03-29T02:32:52;96535.03;;;4.24;100.00
10014;BME280;45684;48.358;10.746;2023-03-29T02:35:26;96526.44;;;4.22;100.00
10014;BME280;45684;48.358;10.746;2023-03-29T02:38:02;96522.97;;;4.22;100.00
10014;BME280;45684;48.358;10.746;2023-03-29T02:40:31;96523.78;;;4.22;100.00
10014;BME280;45684;48.358;10.746;2023-03-29T02:43:00;96516.28;;;4.19;100.00
10014;BME280;45684;48.358;10.746;2023-03-29T02:45:31;96513.59;;;4.19;100.00
10014;BME280;45684;48.358;10.746;2023-03-29T02:48:02;96511.19;;;4.18;100.00
10014;BME280;45684;48.358;10.746;2023-03-29T02:50:35;96512.78;;;4.19;100.00
10014;BME280;45684;48.358;10.746;2023-03-29T02:53:07;96505.03;;;4.27;100.00
10014;BME280;45684;48.358;10.746;2023-03-29T02:55:39;96497.81;;;4.23;100.00
10014;BME280;45684;48.358;10.746;2023-03-29T02:58:07;96491.13;;;4.20;100.00
10014;BME280;45684;48.358;10.746;2023-03-29T03:00:41;96489.78;;;4.18;100.00
10014;BME280;45684;48.358;10.746;2023-03-29T03:03:11;96485.22;;;4.13;100.00
10014;BME280;45684;48.358;10.746;2023-03-29T03:05:43;96474.81;;;4.12;100.00
10014;BME280;45684;48.358;10.746;2023-03-29T03:08:11;96471.56;;;4.09;100.00
10014;BME280;45684;48.358;10.746;2023-03-29T03:10:39;96472.13;;;4.12;100.00
10014;BME280;45684;48.358;10.746;2023-03-29T03:13:07;96477.75;;;4.20;100.00
10014;BME280;45684;48.358;10.746;2023-03-29T03:15:35;96458.75;;;4.22;100.00
10014;BME280;45684;48.358;10.746;2023-03-29T03:18:08;96466.25;;;4.20;100.00
10014;BME280;45684;48.358;10.746;2023-03-29T03:20:37;96456.06;;;4.17;100.00
10014;BME280;45684;48.358;10.746;2023-03-29T03:23:06;96460.88;;;4.09;100.00
10014;BME280;45684;48.358;10.746;2023-03-29T03:25:36;96448.28;;;4.10;100.00
10014;BME280;45684;48.358;10.746;2023-03-29T03:28:04;96443.78;;;4.11;100.00
10014;BME280;45684;48.358;10.746;2023-03-29T03:30:32;96444.81;;;4.04;100.00
10014;BME280;45684;48.358;10.746;2023-03-29T03:33:07;96450.16;;;3.99;100.00
10014;BME280;45684;48.358;10.746;2023-03-29T03:35:54;96434.41;;;3.98;100.00
10014;BME280;45684;48.358;10.746;2023-03-29T03:38:23;96432.00;;;4.01;100.00
10014;BME280;45684;48.358;10.746;2023-03-29T03:40:56;96428.50;;;4.06;100.00
10014;BME280;45684;48.358;10.746;2023-03-29T03:43:25;96430.38;;;4.11;100.00
10014;BME280;45684;48.358;10.746;2023-03-29T03:45:54;96421.28;;;4.22;100.00
10014;BME280;45684;48.358;10.746;2023-03-29T03:48:25;96423.94;;;4.27;100.00
10014;BME280;45684;48.358;10.746;2023-03-29T03:51:04;96421.25;;;4.37;100.00
10014;BME280;45684;48.358;10.746;2023-03-29T03:53:33;96410.28;;;4.44;100.00
10014;BME280;45684;48.358;10.746;2023-03-29T03:56:10;96411.56;;;4.56;100.00
10014;BME280;45684;48.358;10.746;2023-03-29T03:58:54;96407.31;;;4.50;100.00
10014;BME280;45684;48.358;10.746;2023-03-29T04:01:22;96416.16;;;4.46;100.00
10014;BME280;45684;48.358;10.746;2023-03-29T04:04:03;96422.06;;;4.48;100.00
10014;BME280;45684;48.358;10.746;2023-03-29T04:06:31;96420.16;;;4.53;100.00
10014;BME280;45684;48.358;10.746;2023-03-29T04:09:18;96419.59;;;4.61;100.00
10014;BME280;45684;48.358;10.746;2023-03-29T04:11:54;96424.16;;;4.71;100.00
10014;BME280;45684;48.358;10.746;2023-03-29T04:14:22;96421.94;;;4.83;100.00
10014;BME280;45684;48.358;10.746;2023-03-29T04:16:50;96408.28;;;4.90;100.00
10014;BME280;45684;48.358;10.746;2023-03-29T04:19:56;96410.91;;;5.00;100.00
10014;BME280;45684;48.358;10.746;2023-03-29T04:22:26;96402.53;;;5.12;100.00
10014;BME280;45684;48.358;10.746;2023-03-29T04:24:54;96400.13;;;5.16;100.00
10014;BME280;45684;48.358;10.746;2023-03-29T04:27:42;96406.00;;;5.23;100.00
10014;BME280;45684;48.358;10.746;2023-03-29T04:30:28;96398.16;;;5.31;100.00
10014;BME280;45684;48.358;10.746;2023-03-29T04:32:59;96405.91;;;5.38;100.00
10014;BME280;45684;48.358;10.746;2023-03-29T04:35:29;96402.06;;;5.49;100.00
10014;BME280;45684;48.358;10.746;2023-03-29T04:37:58;96407.13;;;5.61;100.00
10014;BME280;45684;48.358;10.746;2023-03-29T04:40:27;96401.38;;;5.73;100.00
10014;BME280;45684;48.358;10.746;2023-03-29T04:43:05;96410.47;;;5.77;100.00
10014;BME280;45684;48.358;10.746;2023-03-29T04:45:33;96411.25;;;5.82;100.00
10014;BME280;45684;48.358;10.746;2023-03-29T04:48:08;96409.06;;;5.89;100.00
10014;BME280;45684;48.358;10.746;2023-03-29T04:50:44;96405.84;;;5.93;100.00
10014;BME280;45684;48.358;10.746;2023-03-29T04:53:14;96403.94;;;5.98;100.00
10014;BME280;45684;48.358;10.746;2023-03-29T04:55:45;96411.94;;;6.03;100.00
10014;BME280;45684;48.358;10.746;2023-03-29T04:58:20;96415.38;;;6.09;100.00
10014;BME280;45684;48.358;10.746;2023-03-29T05:00:54;96409.44;;;6.12;100.00
10014;BME280;45684;48.358;10.746;2023-03-29T05:03:35;96416.16;;;6.09;100.00
10014;BME280;45684;48.358;10.746;2023-03-29T05:06:14;96425.81;;;6.16;100.00
10014;BME280;45684;48.358;10.746;2023-03-29T05:08:42;96421.19;;;6.21;100.00
10014;BME280;45684;48.358;10.746;2023-03-29T05:11:38;96418.72;;;6.25;100.00
10014;BME280;45684;48.358;10.746;2023-03-29T05:14:07;96429.47;;;6.25;100.00
10014;BME280;45684;48.358;10.746;2023-03-29T05:16:35;96421.94;;;6.27;100.00
10014;BME280;45684;48.358;10.746;2023-03-29T05:19:04;96426.75;;;6.30;100.00
10014;BME280;45684;48.358;10.746;2023-03-29T05:21:37;96419.22;;;6.32;100.00
10014;BME280;45684;48.358;10.746;2023-03-29T05:24:07;96414.41;;;6.29;100.00
10014;BME280;45684;48.358;10.746;2023-03-29T05:26:41;96418.72;;;6.25;100.00
10014;BME280;45684;48.358;10.746;2023-03-29T05:29:09;96411.19;;;6.27;100.00
10014;BME280;45684;48.358;10.746;2023-03-29T05:31:38;96419.25;;;6.27;100.00
10014;BME280;45684;48.358;10.746;2023-03-29T05:34:07;96412.47;;;6.34;100.00
10014;BME280;45684;48.358;10.746;2023-03-29T05:36:41;96413.72;;;6.42;100.00
10014;BME280;45684;48.358;10.746;2023-03-29T05:39:11;96419.00;;;6.52;100.00
10014;BME280;45684;48.358;10.746;2023-03-29T05:41:39;96428.63;;;6.58;100.00
10014;BME280;45684;48.358;10.746;2023-03-29T05:44:25;96426.13;;;6.67;100.00
10014;BME280;45684;48.358;10.746;2023-03-29T05:47:00;96421.81;;;6.66;100.00
10014;BME280;45684;48.358;10.746;2023-03-29T05:49:28;96426.13;;;6.67;100.00
10014;BME280;45684;48.358;10.746;2023-03-29T05:52:18;96417.38;;;6.80;100.00
10014;BME280;45684;48.358;10.746;2023-03-29T05:54:46;96418.69;;;6.83;100.00
10014;BME280;45684;48.358;10.746;2023-03-29T05:57:14;96425.13;;;6.87;100.00
10014;BME280;45684;48.358;10.746;2023-03-29T05:59:42;96412.47;;;6.87;100.00
10014;BME280;45684;48.358;10.746;2023-03-29T06:02:11;96422.94;;;6.89;100.00
10014;BME280;45684;48.358;10.746;2023-03-29T06:04:45;96423.63;;;7.00;100.00
10014;BME280;45684;48.358;10.746;2023-03-29T06:07:24;96421.16;;;7.03;100.00
10014;BME280;45684;48.358;10.746;2023-03-29T06:10:11;96418.81;;;7.21;100.00
10014;BME280;45684;48.358;10.746;2023-03-29T06:12:43;96418.22;;;7.24;100.00
10014;BME280;45684;48.358;10.746;2023-03-29T06:15:12;96416.59;;;7.23;100.00
10014;BME280;45684;48.358;10.746;2023-03-29T06:17:59;96419.19;;;7.33;100.00
10014;BME280;45684;48.358;10.746;2023-03-29T06:20:28;96422.41;;;7.54;100.00
10014;BME280;45684;48.358;10.746;2023-03-29T06:23:03;96422.63;;;7.57;100.00
10014;BME280;45684;48.358;10.746;2023-03-29T06:25:31;96425.69;;;7.70;100.00
10014;BME280;45684;48.358;10.746;2023-03-29T06:28:00;96426.66;;;7.79;100.00
10014;BME280;45684;48.358;10.746;2023-03-29T06:30:28;96425.63;;;7.93;100.00
10014;BME280;45684;48.358;10.746;2023-03-29T06:32:57;96439.88;;;7.94;100.00
10014;BME280;45684;48.358;10.746;2023-03-29T06:35:45;96430.19;;;7.93;100.00
10014;BME280;45684;48.358;10.746;2023-03-29T06:38:18;96424.88;;;7.88;100.00
10014;BME280;45684;48.358;10.746;2023-03-29T06:41:07;96432.94;;;7.88;100.00
10014;BME280;45684;48.358;10.746;2023-03-29T06:44:15;96439.00;;;7.99;100.00
10014;BME280;45684;48.358;10.746;2023-03-29T06:46:58;96442.91;;;8.06;100.00
10014;BME280;45684;48.358;10.746;2023-03-29T06:49:27;96441.38;;;8.19;100.00
10014;BME280;45684;48.358;10.746;2023-03-29T06:52:04;96452.06;;;8.24;100.00
10014;BME280;45684;48.358;10.746;2023-03-29T06:54:33;96461.31;;;8.37;100.00
10014;BME280;45684;48.358;10.746;2023-03-29T06:57:02;96465.75;;;8.28;100.00
10014;BME280;45684;48.358;10.746;2023-03-29T06:59:32;96457.53;;;8.38;100.00
10014;BME280;45684;48.358;10.746;2023-03-29T07:02:20;96459.06;;;8.44;100.00
10014;BME280;45684;48.358;10.746;2023-03-29T07:04:54;96460.13;;;8.43;100.00
10014;BME280;45684;48.358;10.746;2023-03-29T07:07:37;96466.53;;;8.47;100.00
10014;BME280;45684;48.358;10.746;2023-03-29T07:10:38;96467.56;;;8.51;100.00
10014;BME280;45684;48.358;10.746;2023-03-29T07:13:32;96458.28;;;8.57;100.00
10014;BME280;45684;48.358;10.746;2023-03-29T07:16:05;96473.78;;;8.65;100.00
10014;BME280;45684;48.358;10.746;2023-03-29T07:18:54;96468.28;;;8.71;100.00
10014;BME280;45684;48.358;10.746;2023-03-29T07:21:41;96467.03;;;8.82;100.00
10014;BME280;45684;48.358;10.746;2023-03-29T07:24:09;96458.88;;;9.01;100.00
10014;BME280;45684;48.358;10.746;2023-03-29T07:26:39;96469.25;;;9.07;100.00
10014;BME280;45684;48.358;10.746;2023-03-29T07:29:26;96472.25;;;9.19;100.00
10014;BME280;45684;48.358;10.746;2023-03-29T07:31:56;96471.47;;;9.19;100.00
10014;BME280;45684;48.358;10.746;2023-03-29T07:34:46;96472.38;;;9.14;100.00
10014;BME280;45684;48.358;10.746;2023-03-29T07:37:27;96464.56;;;9.13;100.00
10014;BME280;45684;48.358;10.746;2023-03-29T07:39:57;96472.66;;;9.27;100.00
10014;BME280;45684;48.358;10.746;2023-03-29T07:42:50;96480.06;;;9.21;100.00
10014;BME280;45684;48.358;10.746;2023-03-29T07:45:23;96477.03;;;9.36;100.00
10014;BME280;45684;48.358;10.746;2023-03-29T07:48:10;96477.16;;;9.45;100.00
10014;BME280;45684;48.358;10.746;2023-03-29T07:51:05;96485.22;;;9.59;100.00
10014;BME280;45684;48.358;10.746;2023-03-29T07:53:57;96488.22;;;9.71;100.00
10014;BME280;45684;48.358;10.746;2023-03-29T07:56:40;96491.94;;;9.75;100.00
10014;BME280;45684;48.358;10.746;2023-03-29T07:59:20;96484.16;;;9.96;99.93
10014;BME280;45684;48.358;10.746;2023-03-29T08:02:13;96500.03;;;10.11;99.99
10014;BME280;45684;48.358;10.746;2023-03-29T08:04:46;96487.97;;;10.45;97.28
10014;BME280;45684;48.358;10.746;2023-03-29T08:07:16;96491.69;;;10.58;97.73
10014;BME280;45684;48.358;10.746;2023-03-29T08:09:55;96484.22;;;10.86;95.20
10014;BME280;45684;48.358;10.746;2023-03-29T08:12:37;96477.13;;;11.30;92.96
10014;BME280;45684;48.358;10.746;2023-03-29T08:15:08;96479.25;;;11.50;89.02
10014;BME280;45684;48.358;10.746;2023-03-29T08:17:36;96475.03;;;11.27;89.14
10014;BME280;45684;48.358;10.746;2023-03-29T08:20:07;96474.59;;;11.42;89.50
10014;BME280;45684;48.358;10.746;2023-03-29T08:22:38;96473.81;;;11.41;89.92
10014;BME280;45684;48.358;10.746;2023-03-29T08:25:23;96476.09;;;11.57;88.05
10014;BME280;45684;48.358;10.746;2023-03-29T08:27:52;96477.03;;;11.61;87.16
10014;BME280;45684;48.358;10.746;2023-03-29T08:30:34;96474.34;;;11.69;86.13
10014;BME280;45684;48.358;10.746;2023-03-29T08:33:03;96475.31;;;11.65;88.29
10014;BME280;45684;48.358;10.746;2023-03-29T08:35:31;96476.59;;;11.67;90.71
10014;BME280;45684;48.358;10.746;2023-03-29T08:38:11;96475.41;;;11.51;90.85
10014;BME280;45684;48.358;10.746;2023-03-29T08:40:40;96471.94;;;11.59;88.91
10014;BME280;45684;48.358;10.746;2023-03-29T08:43:21;96470.78;;;11.34;87.93
10014;BME280;45684;48.358;10.746;2023-03-29T08:46:24;96469.19;;;11.42;88.54
10014;BME280;45684;48.358;10.746;2023-03-29T08:49:10;96468.50;;;11.28;90.65
10014;BME280;45684;48.358;10.746;2023-03-29T08:51:44;96470.84;;;11.12;92.03
10014;BME280;45684;48.358;10.746;2023-03-29T08:54:16;96476.25;;;11.12;92.50
10014;BME280;45684;48.358;10.746;2023-03-29T08:57:13;96473.13;;;11.27;90.84
10014;BME280;45684;48.358;10.746;2023-03-29T08:59:48;96480.56;;;11.61;89.66
10014;BME280;45684;48.358;10.746;2023-03-29T09:02:22;96473.22;;;11.53;88.19
10014;BME280;45684;48.358;10.746;2023-03-29T09:04:59;96473.13;;;11.75;86.84
10014;BME280;45684;48.358;10.746;2023-03-29T09:07:53;96474.44;;;11.87;85.63
10014;BME280;45684;48.358;10.746;2023-03-29T09:10:29;96471.41;;;12.06;85.66
10014;BME280;45684;48.358;10.746;2023-03-29T09:13:12;96473.19;;;12.28;83.78
10014;BME280;45684;48.358;10.746;2023-03-29T09:15:47;96482.13;;;12.37;78.20
10014;BME280;45684;48.358;10.746;2023-03-29T09:18:48;96486.59;;;12.41;74.43
10014;BME280;45684;48.358;10.746;2023-03-29T09:21:22;96473.94;;;12.71;75.45
10014;BME280;45684;48.358;10.746;2023-03-29T09:24:21;96477.16;;;12.73;75.93
10014;BME280;45684;48.358;10.746;2023-03-29T09:27:08;96485.41;;;12.86;70.83
10014;BME280;45684;48.358;10.746;2023-03-29T09:29:51;96467.00;;;13.00;67.81
10014;BME280;45684;48.358;10.746;2023-03-29T09:32:43;96466.94;;;13.17;68.73
10014;BME280;45684;48.358;10.746;2023-03-29T09:35:20;96467.94;;;13.13;70.00
10014;BME280;45684;48.358;10.746;2023-03-29T09:37:51;96467.78;;;13.09;72.11
10014;BME280;45684;48.358;10.746;2023-03-29T09:40:23;96457.03;;;13.21;71.90
10014;BME280;45684;48.358;10.746;2023-03-29T09:43:02;96455.94;;;13.22;71.63
10014;BME280;45684;48.358;10.746;2023-03-29T09:45:31;96453.38;;;13.17;72.22
10014;BME280;45684;48.358;10.746;2023-03-29T09:48:05;96453.41;;;13.09;69.96
10014;BME280;45684;48.358;10.746;2023-03-29T09:50:42;96462.56;;;12.87;70.96
10014;BME280;45684;48.358;10.746;2023-03-29T09:53:13;96458.47;;;12.63;74.76
10014;BME280;45684;48.358;10.746;2023-03-29T09:55:49;96457.19;;;12.69;75.81
10014;BME280;45684;48.358;10.746;2023-03-29T09:58:29;96456.84;;;12.80;73.10
10014;BME280;45684;48.358;10.746;2023-03-29T10:01:00;96458.25;;;12.86;70.67
10014;BME280;45684;48.358;10.746;2023-03-29T10:03:31;96461.94;;;12.90;72.01
10014;BME280;45684;48.358;10.746;2023-03-29T10:06:11;96462.28;;;12.80;72.30
10014;BME280;45684;48.358;10.746;2023-03-29T10:08:46;96459.06;;;12.77;72.32
10014;BME280;45684;48.358;10.746;2023-03-29T10:11:20;96457.97;;;12.87;72.32
10014;BME280;45684;48.358;10.746;2023-03-29T10:13:51;96453.91;;;13.02;73.09
10014;BME280;45684;48.358;10.746;2023-03-29T10:16:28;96441.56;;;13.13;70.52
10014;BME280;45684;48.358;10.746;2023-03-29T10:19:15;96441.41;;;13.10;71.49
10014;BME280;45684;48.358;10.746;2023-03-29T10:21:47;96440.38;;;13.40;70.76
10014;BME280;45684;48.358;10.746;2023-03-29T10:24:19;96435.84;;;13.74;67.58
10014;BME280;45684;48.358;10.746;2023-03-29T10:26:49;96426.19;;;13.85;65.62
10014;BME280;45684;48.358;10.746;2023-03-29T10:29:21;96433.06;;;13.83;68.73
10014;BME280;45684;48.358;10.746;2023-03-29T10:31:50;96428.72;;;14.11;65.51
10014;BME280;45684;48.358;10.746;2023-03-29T10:34:20;96425.53;;;14.09;63.07
10014;BME280;45684;48.358;10.746;2023-03-29T10:36:56;96423.59;;;14.10;60.96
10014;BME280;45684;48.358;10.746;2023-03-29T10:39:26;96422.28;;;14.16;63.15
10014;BME280;45684;48.358;10.746;2023-03-29T10:41:57;96418.28;;;14.55;60.87
10014;BME280;45684;48.358;10.746;2023-03-29T10:44:34;96414.56;;;14.72;57.81
10014;BME280;45684;48.358;10.746;2023-03-29T10:47:14;96413.56;;;14.76;56.22
10014;BME280;45684;48.358;10.746;2023-03-29T10:49:45;96406.97;;;14.77;52.91
10014;BME280;45684;48.358;10.746;2023-03-29T10:52:15;96406.63;;;14.67;53.54
10014;BME280;45684;48.358;10.746;2023-03-29T10:54:44;96403.16;;;14.78;53.41
10014;BME280;45684;48.358;10.746;2023-03-29T10:57:14;96398.84;;;14.90;54.18
10014;BME280;45684;48.358;10.746;2023-03-29T10:59:54;96405.88;;;14.91;51.60
10014;BME280;45684;48.358;10.746;2023-03-29T11:05:22;96420.75;;;14.27;54.50
10014;BME280;45684;48.358;10.746;2023-03-29T11:08:08;96421.78;;;14.35;51.74
10014;BME280;45684;48.358;10.746;2023-03-29T11:10:46;96409.78;;;14.36;52.90
10014;BME280;45684;48.358;10.746;2023-03-29T11:13:20;96409.69;;;14.44;51.47
10014;BME280;45684;48.358;10.746;2023-03-29T11:16:04;96420.41;;;14.49;51.52
10014;BME280;45684;48.358;10.746;2023-03-29T11:19:09;96424.84;;;14.33;53.23
10014;BME280;45684;48.358;10.746;2023-03-29T11:21:46;96405.53;;;14.47;53.86
10014;BME280;45684;48.358;10.746;2023-03-29T11:24:36;96410.59;;;14.69;54.81
10014;BME280;45684;48.358;10.746;2023-03-29T11:27:12;96410.75;;;14.85;51.51
10014;BME280;45684;48.358;10.746;2023-03-29T11:29:54;96405.19;;;15.06;50.82
10014;BME280;45684;48.358;10.746;2023-03-29T11:32:33;96411.47;;;15.31;51.74
10014;BME280;45684;48.358;10.746;2023-03-29T11:35:17;96405.94;;;15.64;49.85
10014;BME280;45684;48.358;10.746;2023-03-29T11:37:54;96413.84;;;15.32;49.40
10014;BME280;45684;48.358;10.746;2023-03-29T11:40:38;96418.16;;;15.34;50.06
10014;BME280;45684;48.358;10.746;2023-03-29T11:43:11;96412.06;;;15.73;49.92
10014;BME280;45684;48.358;10.746;2023-03-29T11:45:44;96420.91;;;15.58;49.09
10014;BME280;45684;48.358;10.746;2023-03-29T11:48:17;96407.63;;;15.32;48.26
10014;BME280;45684;48.358;10.746;2023-03-29T11:50:52;96405.81;;;15.36;49.38
10014;BME280;45684;48.358;10.746;2023-03-29T11:53:26;96414.53;;;15.66;49.18
10014;BME280;45684;48.358;10.746;2023-03-29T11:56:05;96410.97;;;16.30;49.55
10014;BME280;45684;48.358;10.746;2023-03-29T11:58:38;96403.66;;;16.75;47.30
10014;BME280;45684;48.358;10.746;2023-03-29T12:01:11;96402.50;;;16.48;46.23
10014;BME280;45684;48.358;10.746;2023-03-29T12:03:43;96403.72;;;16.50;44.74
10014;BME280;45684;48.358;10.746;2023-03-29T12:06:16;96399.78;;;16.92;43.97
10014;BME280;45684;48.358;10.746;2023-03-29T12:08:50;96384.19;;;17.24;44.48
10014;BME280;45684;48.358;10.746;2023-03-29T12:11:27;96387.00;;;17.27;43.66
10014;BME280;45684;48.358;10.746;2023-03-29T12:14:00;96391.06;;;17.02;42.91
10014;BME280;45684;48.358;10.746;2023-03-29T12:16:30;96389.81;;;17.15;42.64
10014;BME280;45684;48.358;10.746;2023-03-29T12:19:05;96383.22;;;17.00;42.06
10014;BME280;45684;48.358;10.746;2023-03-29T12:21:40;96380.41;;;17.13;41.38
10014;BME280;45684;48.358;10.746;2023-03-29T12:24:10;96376.34;;;17.22;41.54
10014;BME280;45684;48.358;10.746;2023-03-29T12:26:58;96375.25;;;17.43;41.73
10014;BME280;45684;48.358;10.746;2023-03-29T12:32:40;96371.44;;;17.63;41.29
10014;BME280;45684;48.358;10.746;2023-03-29T12:35:39;96371.44;;;17.63;42.51
10014;BME280;45684;48.358;10.746;2023-03-29T12:38:18;96364.31;;;17.58;41.50
10014;BME280;45684;48.358;10.746;2023-03-29T12:41:15;96355.38;;;17.62;41.83
10014;BME280;45684;48.358;10.746;2023-03-29T12:44:12;96358.91;;;17.78;42.75
10014;BME280;45684;48.358;10.746;2023-03-29T12:47:16;96354.59;;;17.96;41.45
10014;BME280;45684;48.358;10.746;2023-03-29T12:49:45;96350.97;;;17.57;42.21
10014;BME280;45684;48.358;10.746;2023-03-29T12:52:22;96346.88;;;17.31;41.69
10014;BME280;45684;48.358;10.746;2023-03-29T12:54:54;96338.13;;;17.42;42.84
10014;BME280;45684;48.358;10.746;2023-03-29T12:57:26;96340.31;;;17.52;42.05
10014;BME280;45684;48.358;10.746;2023-03-29T13:00:10;96335.81;;;17.44;42.42
10014;BME280;45684;48.358;10.746;2023-03-29T13:02:41;96336.22;;;17.26;42.72
10014;BME280;45684;48.358;10.746;2023-03-29T13:05:29;96345.72;;;17.32;43.37
10014;BME280;45684;48.358;10.746;2023-03-29T13:07:57;96340.22;;;16.97;42.06
10014;BME280;45684;48.358;10.746;2023-03-29T13:10:34;96328.22;;;16.86;42.57
10014;BME280;45684;48.358;10.746;2023-03-29T13:13:10;96327.50;;;16.73;43.36
10014;BME280;45684;48.358;10.746;2023-03-29T13:15:43;96330.34;;;16.77;43.32
10014;BME280;45684;48.358;10.746;2023-03-29T13:18:25;96326.69;;;16.57;43.24
10014;BME280;45684;48.358;10.746;2023-03-29T13:21:04;96320.34;;;16.09;44.07
10014;BME280;45684;48.358;10.746;2023-03-29T13:23:45;96321.38;;;16.32;44.64
10014;BME280;45684;48.358;10.746;2023-03-29T13:26:42;96326.00;;;16.16;46.59
10014;BME280;45684;48.358;10.746;2023-03-29T13:32:27;96309.47;;;16.25;46.12
10014;BME280;45684;48.358;10.746;2023-03-29T13:35:08;96313.84;;;16.14;44.52
10014;BME280;45684;48.358;10.746;2023-03-29T13:37:49;96301.94;;;16.06;44.98
10014;BME280;45684;48.358;10.746;2023-03-29T13:40:27;96298.06;;;16.07;46.34
10014;BME280;45684;48.358;10.746;2023-03-29T13:43:00;96300.94;;;15.98;45.21